Latest Weather Observations for Port Kembla Harbour

IDN60801

Issued at 8:32 pm EST Monday 31 August 2015 (issued every 30 minutes, with the page automatically refreshed every 10 minutes)

About weather observations | Map of weather stations | Latest weather observations for NSW | Other Formats
Station Details ID: 068253 Name: PORT KEMBLA NTC AWS Lat: -34.47 Lon: 150.91 Height: 0.0 m
Data from the previous 72 hours. | See also: Recent months for locations in New South Wales
Date/Time
EST
Temp
°C
App
Temp
°C
Dew
Point
Rel
Hum
%
Delta-T
°C
Wind Press
QNH
hPa
Press
MSL
hPa
Rain
since 9 am
mm
Dir
 
Spd
km/h
Gust
km/h
Spd
kts
Gust
kts
31/08:30pm 12.9 - - - - WSW 11 17 6 9 1015.0 1015.0 -
31/08:00pm 12.8 - - - - WSW 13 17 7 9 1015.0 1015.0 -
31/07:30pm 13.8 - - - - WSW 9 13 5 7 1014.7 1014.7 -
31/07:00pm 14.3 - - - - WSW 11 15 6 8 1014.5 1014.5 -
31/06:30pm 14.8 - - - - SW 9 15 5 8 1014.2 1014.2 -
31/06:00pm 15.3 - - - - SSW 7 19 4 10 1013.9 1013.9 -
31/05:30pm 15.5 - - - - S 9 19 5 10 1013.8 1013.8 -
31/05:00pm 15.3 - - - - S 9 17 5 9 1013.7 1013.7 -
31/04:30pm 15.6 - - - - S 11 22 6 12 1013.5 1013.5 -
31/04:00pm 15.9 - - - - S 13 24 7 13 1013.5 1013.5 -
31/03:30pm 15.9 - - - - S 13 26 7 14 1013.4 1013.4 -
31/03:00pm 16.4 - - - - S 11 24 6 13 1013.6 1013.6 -
31/02:30pm 16.1 - - - - SSE 15 26 8 14 1013.8 1013.8 -
31/02:00pm 16.3 - - - - SSE 13 22 7 12 1014.0 1014.0 -
31/01:30pm 16.2 - - - - S 13 22 7 12 1014.3 1014.3 -
31/01:00pm 15.9 - - - - SSE 11 22 6 12 1014.5 1014.5 -
31/12:30pm 15.7 - - - - S 11 24 6 13 1014.9 1014.9 -
31/12:00pm 15.4 - - - - S 9 20 5 11 1015.4 1015.4 -
31/11:30am 15.0 - - - - WSW 19 30 10 16 1015.7 1015.7 -
31/11:00am 14.8 - - - - WSW 17 26 9 14 1016.2 1016.2 -
31/10:30am 14.3 - - - - WSW 17 26 9 14 1016.4 1016.4 -
31/10:00am 14.1 - - - - SW 17 26 9 14 1016.5 1016.5 -
31/09:30am 14.2 - - - - SW 15 24 8 13 1016.7 1016.7 -
31/09:00am 12.7 - - - - WSW 13 20 7 11 1016.8 1016.8 -
31/08:30am 12.6 - - - - WSW 13 22 7 12 1016.9 1016.9 -
31/08:00am 12.1 - - - - WSW 15 20 8 11 1016.9 1016.9 -
31/07:30am 12.0 - - - - WSW 9 17 5 9 1016.9 1016.9 -
31/07:00am 10.9 - - - - W 9 11 5 6 1016.9 1016.9 -
31/06:30am 10.6 - - - - W 13 17 7 9 1016.7 1016.7 -
31/06:00am 9.0 - - - - WSW 7 9 4 5 1016.5 1016.5 -
31/05:30am 9.7 - - - - WSW 9 13 5 7 1016.4 1016.4 -
31/05:00am 10.7 - - - - WSW 13 17 7 9 1016.3 1016.3 -
31/04:30am 11.3 - - - - WSW 11 13 6 7 1016.2 1016.2 -
31/04:00am 11.9 - - - - SW 9 17 5 9 1016.3 1016.3 -
31/03:30am 11.7 - - - - WSW 13 19 7 10 1016.4 1016.4 -
31/03:00am 12.4 - - - - WSW 9 15 5 8 1016.6 1016.6 -
31/02:30am 12.1 - - - - WSW 7 17 4 9 1017.1 1017.1 -
31/02:00am 12.7 - - - - SW 9 17 5 9 1017.4 1017.4 -
31/01:30am 12.2 - - - - SW 9 13 5 7 1017.9 1017.9 -
31/01:00am 12.6 - - - - SW 11 17 6 9 1018.0 1018.0 -
31/12:30am 13.1 - - - - WSW 15 24 8 13 1018.2 1018.2 -
31/12:00am 13.3 - - - - SW 13 20 7 11 1018.2 1018.2 -
 
Date/Time
EST
Temp
°C
App
Temp
°C
Dew
Point
Rel
Hum
%
Delta-T
°C
Wind Press
QNH
hPa
Press
MSL
hPa
Rain
since 9 am
mm
Dir
 
Spd
km/h
Gust
km/h
Spd
kts
Gust
kts
30/11:30pm 13.0 - - - - WSW 7 11 4 6 1018.2 1018.2 -
30/11:00pm 13.1 - - - - W 13 15 7 8 1018.3 1018.3 -
30/10:30pm 13.3 - - - - W 11 13 6 7 1018.4 1018.4 -
30/10:00pm 13.6 - - - - W 11 15 6 8 1018.5 1018.5 -
30/09:30pm 14.0 - - - - W 17 22 9 12 1018.4 1018.4 -
30/09:00pm 13.7 - - - - W 11 19 6 10 1018.6 1018.6 -
30/08:30pm 13.8 - - - - WSW 13 19 7 10 1018.6 1018.6 -
30/08:00pm 13.8 - - - - WSW 13 19 7 10 1018.4 1018.4 -
30/07:30pm 13.8 - - - - WSW 13 20 7 11 1018.4 1018.4 -
30/07:00pm 14.2 - - - - SW 15 22 8 12 1018.2 1018.2 -
30/06:30pm 14.8 - - - - SW 15 24 8 13 1018.0 1018.0 -
30/06:00pm 15.2 - - - - SSW 11 24 6 13 1017.5 1017.5 -
30/05:30pm 15.3 - - - - S 11 22 6 12 1017.3 1017.3 -
30/05:00pm 15.4 - - - - S 11 22 6 12 1017.2 1017.2 -
30/04:30pm 15.3 - - - - S 11 22 6 12 1017.0 1017.0 -
30/04:00pm 15.3 - - - - SSE 15 26 8 14 1017.1 1017.1 -
30/03:30pm 14.9 - - - - SSE 15 28 8 15 1017.2 1017.2 -
30/03:00pm 15.0 - - - - S 15 28 8 15 1017.3 1017.3 -
30/02:30pm 15.6 - - - - S 17 32 9 17 1017.4 1017.4 -
30/02:00pm 15.9 - - - - SSE 13 24 7 13 1017.5 1017.5 -
30/01:30pm 15.5 - - - - S 15 30 8 16 1017.5 1017.5 -
30/01:00pm 15.7 - - - - S 13 28 7 15 1017.9 1017.9 -
30/12:30pm 16.0 - - - - S 13 26 7 14 1018.2 1018.2 -
30/12:00pm 15.5 - - - - S 11 22 6 12 1018.7 1018.7 -
30/11:30am 15.5 - - - - S 13 24 7 13 1019.2 1019.2 -
30/11:00am 15.5 - - - - S 13 28 7 15 1019.3 1019.3 -
30/10:30am 15.1 - - - - S 9 20 5 11 1019.5 1019.5 -
30/10:00am 14.6 - - - - SW 15 28 8 15 1019.7 1019.7 -
30/09:30am 13.8 - - - - WSW 15 20 8 11 1019.6 1019.6 -
30/09:00am 13.5 - - - - WSW 15 20 8 11 1019.8 1019.8 -
30/08:30am 13.0 - - - - WSW 11 19 6 10 1019.7 1019.7 -
30/08:00am 12.2 - - - - WSW 13 17 7 9 1019.6 1019.6 -
30/07:30am 11.8 - - - - WSW 15 19 8 10 1019.4 1019.4 -
30/07:00am 11.0 - - - - WSW 13 17 7 9 1019.1 1019.1 -
30/06:30am 10.2 - - - - W 13 17 7 9 1018.9 1018.9 -
30/06:00am 10.5 - - - - W 13 17 7 9 1018.9 1018.9 -
30/05:30am 10.5 - - - - WSW 15 20 8 11 1018.7 1018.7 -
30/05:00am 10.3 - - - - WSW 13 19 7 10 1018.7 1018.7 -
30/04:30am 10.4 - - - - WSW 17 20 9 11 1018.6 1018.6 -
30/04:00am 10.1 - - - - WSW 17 20 9 11 1018.5 1018.5 -
30/03:30am 10.5 - - - - WSW 17 22 9 12 1018.6 1018.6 -
30/03:00am 10.3 - - - - WSW 17 19 9 10 1018.9 1018.9 -
30/02:30am 10.8 - - - - WSW 19 22 10 12 1019.1 1019.1 -
30/02:00am 10.8 - - - - WSW 20 24 11 13 1019.3 1019.3 -
30/01:30am 10.9 - - - - WSW 17 20 9 11 1019.5 1019.5 -
30/01:00am 11.1 - - - - W 15 19 8 10 1019.7 1019.7 -
30/12:30am 11.1 - - - - W 17 19 9 10 1019.8 1019.8 -
30/12:00am 11.3 - - - - W 17 19 9 10 1019.9 1019.9 -
 
Date/Time
EST
Temp
°C
App
Temp
°C
Dew
Point
Rel
Hum
%
Delta-T
°C
Wind Press
QNH
hPa
Press
MSL
hPa
Rain
since 9 am
mm
Dir
 
Spd
km/h
Gust
km/h
Spd
kts
Gust
kts
29/11:30pm 11.6 - - - - W 17 22 9 12 1019.9 1019.9 -
29/11:00pm 11.7 - - - - W 17 20 9 11 1020.2 1020.2 -
29/10:30pm 12.0 - - - - W 17 20 9 11 1020.3 1020.3 -
29/10:00pm 12.3 - - - - W 15 19 8 10 1020.3 1020.3 -
29/09:30pm 12.9 - - - - WSW 20 28 11 15 1020.3 1020.3 -
29/09:00pm 13.3 - - - - WSW 20 30 11 16 1020.2 1020.2 -
29/08:30pm 13.5 - - - - WSW 13 20 7 11 1020.0 1020.0 -
29/08:00pm 14.0 - - - - WSW 17 22 9 12 1019.6 1019.6 -
29/07:30pm 14.2 - - - - W 13 19 7 10 1019.3 1019.3 -
29/07:00pm 14.5 - - - - W 17 22 9 12 1018.9 1018.9 -
29/06:30pm 15.2 - - - - W 17 20 9 11 1018.6 1018.6 -
29/06:00pm 15.9 - - - - W 13 17 7 9 1018.2 1018.2 -
29/05:30pm 16.4 - - - - WSW 19 24 10 13 1017.9 1017.9 -
29/05:00pm 17.0 - - - - WSW 20 28 11 15 1017.5 1017.5 -
29/04:30pm 17.6 - - - - WSW 17 24 9 13 1017.4 1017.4 -
29/04:00pm 17.6 - - - - W 22 35 12 19 1017.3 1017.3 -
29/03:30pm 17.8 - - - - WNW 20 35 11 19 1017.3 1017.3 -
29/03:00pm 17.8 - - - - WNW 22 33 12 18 1017.3 1017.3 -
29/02:30pm 17.6 - - - - W 17 28 9 15 1017.5 1017.5 -
29/02:00pm 17.5 - - - - W 15 22 8 12 1017.7 1017.7 -
29/01:30pm 17.0 - - - - WNW 13 24 7 13 1018.2 1018.2 -
29/01:00pm 16.6 - - - - W 15 24 8 13 1018.7 1018.7 -
29/12:30pm 16.1 - - - - WSW 22 35 12 19 1019.3 1019.3 -
29/12:00pm 16.4 - - - - WSW 20 33 11 18 1019.8 1019.8 -
29/11:30am 15.7 - - - - SW 15 24 8 13 1020.3 1020.3 -
29/11:00am 15.3 - - - - SW 15 22 8 12 1020.7 1020.7 -
29/10:30am 15.1 - - - - W 13 22 7 12 1020.9 1020.9 -
29/10:00am 14.7 - - - - WSW 11 26 6 14 1021.2 1021.2 -
29/09:30am 14.3 - - - - W 11 20 6 11 1021.5 1021.5 -
29/09:00am 13.9 - - - - W 13 22 7 12 1021.6 1021.6 -
29/08:30am 13.6 - - - - WSW 9 13 5 7 1021.7 1021.7 -
29/08:00am 13.3 - - - - WNW 7 13 4 7 1021.9 1021.9 -
29/07:30am 13.0 - - - - WNW 13 19 7 10 1021.7 1021.7 -
29/07:00am 12.0 - - - - WNW 15 19 8 10 1021.7 1021.7 -

Other Formats:

Comma delimited format used in spreadsheet applications
http://www.bom.gov.au/fwo/IDN60801/IDN60801.95745.axf

JavaScript Object Notation format (JSON) in row-major order
http://www.bom.gov.au/fwo/IDN60801/IDN60801.95745.json